Time;durP1;ratioP1;P1;durP2;ratioP2;P2;SDS_P1;SDS_P2;PMS_P1;PMS_P2;Temp;Humidity;BMP_temperature;BMP_pressure;BME280_temperature;BME280_humidity;BME280_pressure;Samples;Min_cycle;Max_cycle;Signal;HPM_P1;HPM_P2
2022/06/14 00:01:17;;;;;;;4.85;1.92;;;14.20;61.40;;;;;;5079729;28;20108;-66
2022/06/14 00:03:44;;;;;;;5.53;2.40;;;14.10;61.40;;;;;;5086411;28;20132;-67
2022/06/14 00:06:09;;;;;;;4.80;1.90;;;14.10;61.40;;;;;;5080405;28;20494;-66
2022/06/14 00:08:35;;;;;;;5.18;1.70;;;14.10;61.60;;;;;;5088329;28;20059;-66
2022/06/14 00:11:06;;;;;;;3.50;1.77;;;14.10;61.80;;;;;;5079316;28;20650;-65
2022/06/14 00:13:32;;;;;;;6.03;1.80;;;14.10;61.90;;;;;;5073583;28;20634;-66
2022/06/14 00:15:57;;;;;;;3.83;1.42;;;14.00;61.80;;;;;;5073134;28;20032;-66
2022/06/14 00:18:23;;;;;;;4.90;1.73;;;14.00;62.00;;;;;;5076925;28;20063;-66
2022/06/14 00:20:49;;;;;;;3.50;1.48;;;13.90;62.00;;;;;;5078611;28;20024;-66
2022/06/14 00:23:16;;;;;;;3.10;1.33;;;13.90;62.10;;;;;;5084809;28;20036;-66
2022/06/14 00:25:48;;;;;;;2.92;1.67;;;13.90;62.20;;;;;;5083736;28;20526;-65
2022/06/14 00:28:16;;;;;;;3.80;1.63;;;13.90;62.30;;;;;;5081368;28;20409;-66
2022/06/14 00:30:45;;;;;;;5.00;1.80;;;13.80;62.40;;;;;;5075744;28;20052;-66
2022/06/14 00:33:11;;;;;;;4.53;2.00;;;13.80;62.40;;;;;;5085563;28;20024;-67
2022/06/14 00:35:37;;;;;;;4.57;1.80;;;13.80;62.60;;;;;;5086405;28;20039;-67
2022/06/14 00:38:03;;;;;;;4.15;1.70;;;13.70;62.70;;;;;;5086514;28;20398;-66
2022/06/14 00:40:32;;;;;;;6.70;2.17;;;13.60;62.90;;;;;;5076807;28;20024;-67
2022/06/14 00:43:02;;;;;;;4.40;1.60;;;13.60;63.20;;;;;;5083973;28;20024;-66
2022/06/14 00:45:28;;;;;;;3.92;1.90;;;13.60;63.30;;;;;;5090152;28;20036;-67
2022/06/14 00:48:06;;;;;;;4.40;1.90;;;13.50;63.30;;;;;;5087502;28;20031;-67
2022/06/14 00:50:56;;;;;;;3.40;1.80;;;13.50;63.30;;;;;;5088908;28;20527;-67
2022/06/14 00:53:31;;;;;;;4.78;1.77;;;13.50;63.30;;;;;;5088059;28;20021;-68
2022/06/14 00:56:05;;;;;;;5.07;1.85;;;13.50;63.30;;;;;;5080121;28;20023;-68
2022/06/14 00:58:37;;;;;;;3.42;1.80;;;13.50;63.40;;;;;;5086478;28;20024;-67
2022/06/14 01:01:18;;;;;;;3.83;1.93;;;13.50;64.10;;;;;;5079079;28;20397;-67
2022/06/14 01:03:55;;;;;;;3.10;1.50;;;13.50;63.50;;;;;;5087480;28;20543;-68
2022/06/14 01:06:48;;;;;;;4.47;1.75;;;13.50;63.60;;;;;;5083321;28;20425;-68
2022/06/14 01:09:16;;;;;;;4.00;1.80;;;13.50;63.60;;;;;;5085215;28;20046;-67
2022/06/14 01:11:49;;;;;;;4.18;1.95;;;13.40;63.60;;;;;;5086889;28;20767;-68
2022/06/14 01:14:19;;;;;;;4.47;1.70;;;13.40;63.60;;;;;;5077785;28;20040;-67
2022/06/14 01:16:44;;;;;;;2.97;1.63;;;13.40;63.60;;;;;;5078525;28;20025;-67
2022/06/14 01:19:25;;;;;;;4.38;1.83;;;13.40;63.70;;;;;;5091696;28;20039;-67
2022/06/14 01:22:06;;;;;;;3.22;1.67;;;13.40;63.70;;;;;;5080118;28;20033;-67
2022/06/14 01:24:34;;;;;;;2.35;1.50;;;13.40;63.90;;;;;;5078927;28;20055;-68
2022/06/14 01:27:04;;;;;;;3.33;2.00;;;13.40;63.90;;;;;;5087624;28;20366;-68
2022/06/14 01:29:33;;;;;;;4.93;1.83;;;13.30;64.10;;;;;;5073369;28;20033;-68
2022/06/14 01:32:02;;;;;;;4.03;1.80;;;13.30;64.20;;;;;;5083178;28;20024;-66
2022/06/14 01:34:30;;;;;;;4.88;2.08;;;13.40;64.40;;;;;;5085682;28;20032;-67
2022/06/14 01:36:58;;;;;;;5.65;1.92;;;13.30;64.40;;;;;;5081072;28;20375;-67
2022/06/14 01:39:24;;;;;;;5.18;1.83;;;13.40;64.40;;;;;;5087723;28;20454;-67
2022/06/14 01:41:50;;;;;;;3.45;1.70;;;13.40;64.20;;;;;;5087889;28;20379;-67
2022/06/14 01:44:27;;;;;;;4.15;1.88;;;13.30;64.20;;;;;;5090952;28;20074;-67
2022/06/14 01:47:17;;;;;;;4.10;2.00;;;13.30;64.40;;;;;;5082274;28;20433;-68
2022/06/14 01:52:57;;;;;;;3.80;2.10;;;13.20;64.60;;;;;;5088082;28;20078;-67
2022/06/14 01:55:44;;;;;;;2.72;1.65;;;13.30;64.70;;;;;;5090330;28;20398;-67
2022/06/14 01:58:22;;;;;;;4.45;1.95;;;13.20;64.60;;;;;;5080091;28;20027;-67
2022/06/14 02:01:01;;;;;;;4.75;1.90;;;13.20;64.60;;;;;;5084946;28;20052;-66
2022/06/14 02:07:17;;;;;;;3.72;1.92;;;13.10;64.80;;;;;;5070620;28;20058;-67
2022/06/14 02:09:50;;;;;;;3.40;1.80;;;13.10;64.90;;;;;;4982140;28;20390;-68
2022/06/14 02:12:22;;;;;;;5.28;2.10;;;13.10;65.00;;;;;;5006009;28;20029;-68
2022/06/14 02:15:10;;;;;;;5.22;1.70;;;13.10;65.10;;;;;;5060724;28;20036;-67
2022/06/14 02:17:43;;;;;;;4.18;1.90;;;13.00;65.00;;;;;;5080988;28;20583;-67
2022/06/14 02:20:20;;;;;;;4.25;1.80;;;13.00;65.10;;;;;;5090838;28;20020;-67
2022/06/14 02:22:53;;;;;;;3.83;1.98;;;13.00;65.30;;;;;;5083556;28;20545;-67
2022/06/14 02:25:29;;;;;;;4.78;2.00;;;12.90;65.40;;;;;;5078899;28;20636;-67
2022/06/14 02:28:18;;;;;;;3.03;2.25;;;12.90;65.70;;;;;;5077339;28;20126;-67
2022/06/14 02:31:00;;;;;;;4.75;2.00;;;12.80;65.70;;;;;;5078005;28;20551;-67
2022/06/14 02:33:37;;;;;;;5.07;2.05;;;12.70;65.80;;;;;;5082448;28;20024;-67
2022/06/14 02:36:10;;;;;;;4.57;2.10;;;12.70;65.90;;;;;;5086289;28;20020;-66
2022/06/14 02:38:54;;;;;;;6.10;2.10;;;12.70;66.10;;;;;;5091481;28;20454;-66
2022/06/14 02:41:32;;;;;;;3.65;2.10;;;12.60;66.00;;;;;;5087575;28;20099;-66
2022/06/14 02:44:04;;;;;;;3.67;2.10;;;12.60;66.10;;;;;;5083316;28;20028;-67
2022/06/14 02:46:44;;;;;;;5.33;2.20;;;12.60;66.10;;;;;;5072506;28;20047;-67
2022/06/14 02:49:20;;;;;;;5.15;2.30;;;12.60;66.30;;;;;;5081421;28;20346;-67
2022/06/14 02:51:53;;;;;;;4.93;2.10;;;12.60;66.50;;;;;;5080719;28;20025;-68
2022/06/14 02:54:54;;;;;;;3.15;1.90;;;12.60;66.50;;;;;;5083422;28;20334;-68
2022/06/14 02:57:45;;;;;;;3.60;1.88;;;12.50;66.40;;;;;;5048760;28;20135;-68
2022/06/14 03:00:13;;;;;;;5.07;2.00;;;12.50;66.50;;;;;;5078262;28;20389;-68
2022/06/14 03:02:46;;;;;;;2.83;1.92;;;12.50;66.50;;;;;;5086389;28;20047;-67
2022/06/14 03:05:32;;;;;;;4.82;2.30;;;12.50;66.50;;;;;;5083165;28;20034;-67
2022/06/14 03:08:01;;;;;;;4.88;2.28;;;12.60;66.60;;;;;;5079980;28;20051;-68
2022/06/14 03:10:36;;;;;;;6.20;2.50;;;12.60;66.60;;;;;;5087241;28;20032;-67
2022/06/14 03:13:11;;;;;;;5.68;2.55;;;12.60;66.60;;;;;;5075528;28;20020;-67
2022/06/14 03:15:53;;;;;;;5.20;2.20;;;12.50;66.60;;;;;;5091737;28;20028;-68
2022/06/14 03:18:36;;;;;;;4.05;1.73;;;12.50;66.70;;;;;;5084266;28;20042;-66
2022/06/14 03:21:16;;;;;;;4.47;2.13;;;12.50;66.70;;;;;;5079440;28;20107;-68
2022/06/14 03:24:11;;;;;;;6.45;1.90;;;12.50;67.00;;;;;;5081920;28;20028;-66
2022/06/14 03:27:05;;;;;;;4.65;2.13;;;12.40;67.10;;;;;;5089800;28;20028;-65
2022/06/14 03:29:36;;;;;;;4.70;2.13;;;12.40;67.20;;;;;;5084721;28;20423;-66
2022/06/14 03:32:17;;;;;;;4.70;2.27;;;12.40;67.20;;;;;;5071254;28;20040;-67
2022/06/14 03:34:55;;;;;;;4.50;1.90;;;12.40;67.30;;;;;;5081817;28;20085;-67
2022/06/14 03:37:22;;;;;;;6.35;2.10;;;12.40;67.30;;;;;;5083234;28;20486;-67
2022/06/14 03:39:59;;;;;;;4.05;1.88;;;12.40;67.30;;;;;;5082269;28;20060;-67
2022/06/14 03:42:25;;;;;;;3.72;1.95;;;12.40;67.50;;;;;;5088558;28;20732;-67
2022/06/14 03:44:51;;;;;;;5.38;2.00;;;12.40;67.50;;;;;;5080582;28;20040;-67
2022/06/14 03:47:19;;;;;;;5.70;1.75;;;12.30;67.50;;;;;;5086083;28;20147;-67
2022/06/14 03:49:47;;;;;;;4.65;2.08;;;12.40;67.50;;;;;;5080978;28;20027;-67
2022/06/14 03:52:28;;;;;;;4.43;1.90;;;12.30;67.70;;;;;;5082986;28;20043;-66
2022/06/14 03:55:15;;;;;;;4.30;1.70;;;12.40;67.70;;;;;;5080129;28;20028;-68
2022/06/14 03:58:04;;;;;;;3.25;1.70;;;12.40;67.70;;;;;;5085354;28;20028;-67
2022/06/14 04:00:53;;;;;;;4.18;1.60;;;12.30;67.70;;;;;;5084626;28;20028;-67
2022/06/14 04:03:41;;;;;;;4.28;2.00;;;12.30;67.80;;;;;;5071611;28;20067;-67
2022/06/14 04:06:34;;;;;;;4.72;2.00;;;12.40;67.80;;;;;;5054568;28;20043;-67
2022/06/14 04:09:34;;;;;;;5.57;1.80;;;12.40;67.80;;;;;;5077966;28;20099;-66
2022/06/14 04:12:44;;;;;;;4.50;1.80;;;12.40;67.80;;;;;;5085153;28;20103;-66
2022/06/14 04:15:21;;;;;;;2.83;1.58;;;12.40;67.80;;;;;;5044890;28;20482;-67
2022/06/14 04:18:34;;;;;;;4.32;1.60;;;12.50;67.80;;;;;;5092631;28;20484;-66
2022/06/14 04:21:02;;;;;;;4.50;1.70;;;12.50;67.80;;;;;;5087707;28;20032;-67
2022/06/14 04:23:40;;;;;;;4.78;1.70;;;12.50;67.90;;;;;;5084428;28;20389;-66
2022/06/14 04:26:20;;;;;;;3.33;1.90;;;12.60;67.90;;;;;;5080273;28;20032;-67
2022/06/14 04:28:58;;;;;;;3.72;1.70;;;12.70;67.90;;;;;;5080318;28;20059;-68
2022/06/14 04:31:26;;;;;;;5.60;2.00;;;12.70;67.90;;;;;;5089313;28;20034;-67
2022/06/14 04:34:18;;;;;;;4.03;1.70;;;12.80;67.80;;;;;;5083469;28;20033;-67
2022/06/14 04:36:57;;;;;;;4.63;1.65;;;12.90;67.80;;;;;;5088860;28;20371;-67
2022/06/14 04:39:45;;;;;;;3.90;1.50;;;13.00;67.60;;;;;;5090537;28;20039;-67
2022/06/14 04:42:17;;;;;;;4.32;1.60;;;13.00;67.70;;;;;;5086371;28;20032;-67
2022/06/14 04:44:55;;;;;;;5.65;2.05;;;13.10;67.60;;;;;;5085807;28;20051;-67
2022/06/14 04:47:32;;;;;;;3.72;1.55;;;13.20;67.60;;;;;;5076352;28;20039;-65
2022/06/14 04:50:04;;;;;;;4.07;1.60;;;13.30;67.40;;;;;;5082954;28;20020;-65
2022/06/14 04:52:37;;;;;;;4.50;1.52;;;13.60;67.10;;;;;;5089011;28;20066;-67
2022/06/14 04:55:09;;;;;;;3.42;1.42;;;14.10;66.30;;;;;;5082573;28;20028;-66
2022/06/14 04:57:52;;;;;;;4.03;1.40;;;14.60;65.20;;;;;;5088309;28;20398;-66
2022/06/14 05:00:27;;;;;;;4.55;1.50;;;15.10;64.00;;;;;;5080243;28;20021;-66
2022/06/14 05:02:57;;;;;;;4.10;1.55;;;15.60;62.90;;;;;;5078590;28;20036;-67
2022/06/14 05:05:36;;;;;;;5.50;1.70;;;16.00;61.90;;;;;;5085094;28;20116;-67
2022/06/14 05:08:20;;;;;;;3.53;1.42;;;16.40;61.00;;;;;;5076816;28;20470;-66
2022/06/14 05:10:47;;;;;;;2.75;1.30;;;16.80;60.30;;;;;;5089355;28;20048;-67
2022/06/14 05:13:32;;;;;;;5.38;1.63;;;16.90;59.70;;;;;;5084012;28;20035;-67
2022/06/14 05:16:13;;;;;;;4.20;1.58;;;17.10;59.40;;;;;;5078547;28;20020;-67
2022/06/14 05:18:47;;;;;;;4.32;1.70;;;17.30;58.80;;;;;;5080209;28;20098;-66
2022/06/14 05:21:24;;;;;;;3.17;1.30;;;17.40;58.50;;;;;;5083526;28;20024;-66
2022/06/14 05:23:53;;;;;;;4.82;1.75;;;17.50;58.30;;;;;;5093395;28;20030;-67
2022/06/14 05:26:30;;;;;;;3.28;1.38;;;17.80;58.00;;;;;;5082021;28;20027;-67
2022/06/14 05:29:09;;;;;;;5.75;1.45;;;18.00;57.50;;;;;;5080346;28;20122;-67
2022/06/14 05:32:15;;;;;;;5.53;1.90;;;18.20;57.10;;;;;;5084923;28;20035;-67
2022/06/14 05:35:06;;;;;;;4.95;1.70;;;18.40;56.80;;;;;;5085846;28;20048;-67
2022/06/14 05:37:43;;;;;;;4.20;1.30;;;18.50;56.50;;;;;;5087106;28;20470;-68
2022/06/14 05:40:16;;;;;;;4.40;1.60;;;18.60;56.40;;;;;;5081803;28;20030;-65
2022/06/14 05:43:09;;;;;;;3.35;1.42;;;18.60;56.30;;;;;;5091160;28;20116;-67
2022/06/14 05:45:40;;;;;;;4.13;1.45;;;18.60;56.70;;;;;;5081648;28;20032;-67
2022/06/14 05:48:10;;;;;;;3.25;1.20;;;18.60;56.00;;;;;;5080983;28;20026;-67
2022/06/14 05:50:40;;;;;;;4.47;1.40;;;18.50;56.00;;;;;;5080499;28;20055;-67
2022/06/14 05:53:27;;;;;;;6.55;1.75;;;18.50;56.00;;;;;;5081254;28;20541;-66
2022/06/14 05:56:08;;;;;;;3.40;1.30;;;18.50;56.70;;;;;;5085147;28;20394;-66
2022/06/14 05:58:52;;;;;;;3.92;1.30;;;18.60;56.10;;;;;;5087983;28;20031;-66
2022/06/14 06:01:30;;;;;;;5.28;1.52;;;18.50;55.90;;;;;;5074769;28;20116;-65
2022/06/14 06:04:06;;;;;;;2.40;1.15;;;18.50;56.00;;;;;;5091780;28;20445;-65
2022/06/14 06:06:39;;;;;;;3.58;1.40;;;18.50;56.00;;;;;;5087376;28;20026;-66
2022/06/14 06:09:29;;;;;;;4.70;1.70;;;18.70;55.90;;;;;;5075101;28;20020;-66
2022/06/14 06:12:22;;;;;;;5.28;1.30;;;18.60;55.40;;;;;;5071513;28;20030;-66
2022/06/14 06:15:01;;;;;;;3.70;1.35;;;18.60;55.40;;;;;;5089176;28;20445;-66
2022/06/14 06:17:36;;;;;;;5.45;1.73;;;18.70;55.40;;;;;;5089788;28;20074;-66
2022/06/14 06:20:15;;;;;;;3.83;1.40;;;18.70;55.40;;;;;;5078458;28;20035;-66
2022/06/14 06:22:45;;;;;;;3.92;1.45;;;18.80;55.40;;;;;;5100067;27;20016;-66
2022/06/14 06:25:21;;;;;;;2.20;1.02;;;18.80;55.20;;;;;;5089338;28;20066;-66
2022/06/14 06:27:52;;;;;;;4.47;1.70;;;18.90;55.00;;;;;;5081933;28;20028;-66
2022/06/14 06:30:32;;;;;;;4.15;1.20;;;18.80;54.70;;;;;;5084161;28;20059;-66
2022/06/14 06:32:58;;;;;;;3.97;1.30;;;18.80;54.70;;;;;;5074741;28;20050;-66
2022/06/14 06:35:35;;;;;;;3.55;1.67;;;18.90;54.30;;;;;;5086122;28;20056;-66
2022/06/14 06:38:27;;;;;;;2.97;1.10;;;19.00;54.10;;;;;;5088699;28;20035;-66
2022/06/14 06:44:57;;;;;;;4.20;1.25;;;19.20;53.60;;;;;;5081158;28;20097;-66
2022/06/14 06:47:29;;;;;;;3.60;1.30;;;19.30;53.20;;;;;;5023037;28;20124;-66
2022/06/14 06:50:15;;;;;;;3.90;1.35;;;19.40;52.90;;;;;;5094985;28;20482;-66
2022/06/14 06:53:00;;;;;;;3.78;1.30;;;19.50;52.60;;;;;;5077573;28;20032;-65
2022/06/14 06:55:38;;;;;;;3.55;1.30;;;19.60;52.20;;;;;;5084152;28;20549;-67
2022/06/14 06:58:11;;;;;;;3.50;1.02;;;19.60;51.80;;;;;;5077201;28;20107;-67
2022/06/14 07:00:39;;;;;;;3.83;1.30;;;19.50;51.80;;;;;;5096909;28;20031;-66
2022/06/14 07:03:35;;;;;;;2.90;1.13;;;19.60;51.60;;;;;;5083183;28;20086;-66
2022/06/14 07:06:05;;;;;;;2.35;1.20;;;19.70;52.10;;;;;;5082500;28;20038;-66
2022/06/14 07:08:58;;;;;;;2.65;1.20;;;19.80;51.20;;;;;;5074076;28;20025;-66
2022/06/14 07:11:34;;;;;;;3.42;1.20;;;19.80;50.70;;;;;;5079455;28;20032;-66
2022/06/14 07:14:06;;;;;;;3.03;1.17;;;20.00;50.80;;;;;;5078615;28;20111;-66
2022/06/14 07:16:44;;;;;;;3.33;1.25;;;20.00;49.60;;;;;;5077248;28;20074;-66
2022/06/14 07:19:22;;;;;;;2.45;1.08;;;19.80;48.20;;;;;;5075456;28;20041;-66
2022/06/14 07:22:03;;;;;;;3.30;1.05;;;19.90;48.80;;;;;;5082638;28;20103;-66
2022/06/14 07:24:38;;;;;;;2.77;1.10;;;20.00;48.90;;;;;;5079881;28;20027;-67
2022/06/14 07:27:11;;;;;;;2.33;1.00;;;20.20;49.40;;;;;;5072903;28;20017;-65
2022/06/14 07:29:46;;;;;;;3.17;1.20;;;20.40;48.50;;;;;;5080773;28;20189;-67
2022/06/14 07:32:26;;;;;;;2.10;0.85;;;20.60;48.20;;;;;;5076538;28;20759;-66
2022/06/14 07:34:52;;;;;;;2.15;1.00;;;20.80;47.60;;;;;;5084878;28;20028;-67
2022/06/14 07:37:23;;;;;;;3.67;1.25;;;21.00;47.50;;;;;;5082961;28;20850;-65
2022/06/14 07:40:14;;;;;;;3.15;1.10;;;21.10;47.00;;;;;;5080405;28;20133;-66
2022/06/14 07:42:49;;;;;;;2.35;1.10;;;20.90;46.70;;;;;;5079446;28;20052;-67
2022/06/14 07:45:17;;;;;;;2.42;1.10;;;20.50;47.00;;;;;;5075956;28;20129;-66
2022/06/14 07:48:07;;;;;;;2.67;1.10;;;20.30;47.00;;;;;;5078828;28;20050;-67
2022/06/14 07:50:51;;;;;;;3.38;1.10;;;20.30;47.20;;;;;;5079156;28;20070;-67
2022/06/14 07:53:38;;;;;;;3.42;1.00;;;20.10;47.50;;;;;;5080546;28;20028;-66
2022/06/14 07:56:29;;;;;;;2.40;1.00;;;20.00;47.60;;;;;;5076215;28;20061;-67
2022/06/14 07:59:03;;;;;;;2.78;1.00;;;20.00;48.20;;;;;;5080272;28;20027;-66
2022/06/14 08:01:41;;;;;;;2.72;1.27;;;20.30;48.10;;;;;;5077333;28;20378;-66
2022/06/14 08:04:20;;;;;;;4.07;1.30;;;20.60;48.00;;;;;;5078094;28;20044;-68
2022/06/14 08:06:51;;;;;;;3.13;1.17;;;20.80;47.60;;;;;;5078839;28;20427;-66
2022/06/14 08:09:41;;;;;;;2.58;1.15;;;21.00;47.10;;;;;;5081876;28;20032;-67
2022/06/14 08:12:24;;;;;;;3.40;1.25;;;21.20;46.70;;;;;;5084194;28;20014;-66
2022/06/14 08:15:01;;;;;;;1.85;1.00;;;21.30;46.40;;;;;;5089507;28;20028;-66
2022/06/14 08:17:32;;;;;;;2.28;0.90;;;21.60;46.00;;;;;;5085848;28;20032;-66
2022/06/14 08:20:10;;;;;;;1.77;0.95;;;21.70;45.60;;;;;;5087921;28;20051;-67
2022/06/14 08:22:45;;;;;;;2.92;1.23;;;21.60;45.30;;;;;;5088904;28;20029;-66
2022/06/14 08:25:17;;;;;;;2.05;1.00;;;21.70;45.20;;;;;;5088564;28;20032;-66
2022/06/14 08:27:55;;;;;;;3.60;1.17;;;21.80;45.00;;;;;;5080794;28;20111;-67
2022/06/14 08:30:29;;;;;;;2.97;1.10;;;22.00;44.80;;;;;;5079100;28;20111;-67
2022/06/14 08:33:13;;;;;;;3.20;1.38;;;22.00;44.40;;;;;;5081206;28;20012;-66
2022/06/14 08:35:44;;;;;;;2.05;1.23;;;22.20;44.10;;;;;;5075639;28;20024;-66
2022/06/14 08:38:15;;;;;;;2.78;1.27;;;22.20;43.80;;;;;;5075299;28;20028;-66
2022/06/14 08:41:01;;;;;;;4.18;1.20;;;21.90;43.20;;;;;;5084296;28;20027;-66
2022/06/14 08:43:34;;;;;;;3.13;1.10;;;21.80;44.10;;;;;;5075712;28;20485;-66
2022/06/14 08:46:05;;;;;;;3.15;1.25;;;21.90;43.70;;;;;;5079413;28;20492;-66
2022/06/14 08:48:34;;;;;;;2.00;0.80;;;21.80;44.10;;;;;;5081496;28;20644;-66
2022/06/14 08:51:09;;;;;;;2.10;0.90;;;22.00;44.10;;;;;;5079230;28;20028;-66
2022/06/14 08:53:53;;;;;;;3.92;1.05;;;22.40;44.10;;;;;;5078835;28;20450;-67
2022/06/14 08:56:34;;;;;;;2.72;1.10;;;22.60;43.40;;;;;;5081022;28;20086;-67
2022/06/14 08:59:19;;;;;;;4.07;0.93;;;22.50;43.10;;;;;;5084506;28;20030;-66
2022/06/14 09:02:05;;;;;;;3.50;1.10;;;22.40;43.20;;;;;;5087652;28;20542;-67
2022/06/14 09:05:09;;;;;;;1.95;1.05;;;21.90;43.50;;;;;;5089011;28;20032;-67
2022/06/14 09:08:09;;;;;;;2.80;1.00;;;21.80;44.20;;;;;;5079326;28;20024;-67
2022/06/14 09:11:11;;;;;;;2.90;1.10;;;21.50;44.20;;;;;;5080614;28;20058;-67
2022/06/14 09:14:08;;;;;;;2.65;1.05;;;21.40;44.10;;;;;;5078620;28;20020;-66
2022/06/14 09:17:11;;;;;;;1.98;1.00;;;21.30;44.40;;;;;;5086383;28;20089;-66
2022/06/14 09:20:10;;;;;;;2.50;1.00;;;21.30;44.40;;;;;;5083737;28;20044;-67
2022/06/14 09:23:06;;;;;;;2.38;1.13;;;21.50;44.30;;;;;;5091596;28;20027;-67
2022/06/14 09:25:44;;;;;;;3.15;1.13;;;21.60;44.00;;;;;;5080682;28;20032;-67
2022/06/14 09:28:29;;;;;;;1.55;0.98;;;21.80;43.90;;;;;;5094178;28;20032;-67
2022/06/14 09:31:19;;;;;;;2.13;0.98;;;21.90;43.60;;;;;;5083133;28;20031;-67
2022/06/14 09:34:35;;;;;;;2.80;0.88;;;22.10;43.50;;;;;;5077818;28;20536;-67
2022/06/14 09:37:17;;;;;;;2.90;1.10;;;22.30;43.20;;;;;;5054806;28;20078;-67
2022/06/14 09:39:52;;;;;;;2.40;1.10;;;22.50;42.50;;;;;;5074983;28;20038;-67
2022/06/14 09:42:18;;;;;;;3.97;1.33;;;22.10;42.00;;;;;;5084588;28;20046;-67
2022/06/14 09:45:08;;;;;;;1.38;0.85;;;21.60;42.20;;;;;;5087885;28;20026;-67
2022/06/14 09:48:09;;;;;;;2.35;0.90;;;21.80;43.10;;;;;;5079785;28;20024;-67
2022/06/14 09:50:56;;;;;;;2.85;1.45;;;21.80;42.90;;;;;;5077356;28;20031;-67
2022/06/14 09:53:49;;;;;;;2.55;1.10;;;21.80;42.70;;;;;;5084425;28;20024;-67
2022/06/14 09:56:20;;;;;;;3.92;1.02;;;21.80;42.60;;;;;;5081905;28;20024;-66
2022/06/14 09:59:10;;;;;;;2.10;0.80;;;21.90;43.10;;;;;;5085078;28;20392;-67
2022/06/14 10:02:03;;;;;;;1.92;0.90;;;22.20;42.60;;;;;;5092046;28;20085;-67
2022/06/14 10:04:50;;;;;;;2.22;0.80;;;22.60;41.80;;;;;;5079432;28;20031;-67
2022/06/14 10:07:45;;;;;;;1.52;0.80;;;22.90;41.30;;;;;;5075378;28;20044;-67
2022/06/14 10:10:26;;;;;;;2.13;0.80;;;23.10;41.10;;;;;;5077497;28;20082;-67
2022/06/14 10:13:08;;;;;;;2.17;1.02;;;23.10;41.20;;;;;;5094402;28;20020;-67
2022/06/14 10:16:04;;;;;;;2.13;0.90;;;23.00;41.00;;;;;;5098438;28;20032;-65
2022/06/14 10:19:01;;;;;;;1.95;0.90;;;22.90;41.20;;;;;;5080414;28;20032;-66
2022/06/14 10:21:38;;;;;;;3.45;0.90;;;22.60;41.20;;;;;;5097220;28;20111;-67
2022/06/14 10:24:14;;;;;;;2.08;0.90;;;22.20;41.40;;;;;;5093396;28;20090;-66
2022/06/14 10:30:08;;;;;;;2.78;0.95;;;21.90;42.10;;;;;;5092706;28;20039;-67
2022/06/14 10:33:27;;;;;;;2.35;1.05;;;21.90;42.00;;;;;;5088906;28;20021;-66
2022/06/14 10:36:14;;;;;;;2.63;1.08;;;22.10;42.20;;;;;;5025920;28;20037;-66
2022/06/14 10:39:33;;;;;;;2.05;0.90;;;22.20;42.20;;;;;;5087304;28;20020;-66
2022/06/14 10:42:19;;;;;;;1.52;0.82;;;22.60;42.30;;;;;;5062611;28;20040;-67
2022/06/14 10:44:54;;;;;;;2.25;0.82;;;22.90;41.50;;;;;;5083578;28;20055;-67
2022/06/14 10:47:48;;;;;;;2.35;0.88;;;23.00;41.10;;;;;;5086592;28;20032;-66
2022/06/14 10:50:34;;;;;;;3.67;1.05;;;23.10;41.00;;;;;;5088196;28;20021;-66
2022/06/14 10:53:37;;;;;;;2.97;1.20;;;22.80;40.00;;;;;;5106320;28;20020;-66
2022/06/14 10:56:06;;;;;;;2.78;1.02;;;22.50;40.70;;;;;;5081309;28;20024;-66
2022/06/14 10:58:41;;;;;;;2.35;1.00;;;22.50;41.30;;;;;;5084448;28;20497;-66
2022/06/14 11:01:40;;;;;;;3.72;1.00;;;22.40;41.20;;;;;;5094861;28;20023;-65
2022/06/14 11:04:29;;;;;;;1.67;0.82;;;22.10;41.90;;;;;;5093817;28;20029;-66
2022/06/14 11:07:13;;;;;;;2.35;1.02;;;22.30;42.10;;;;;;5091948;28;20019;-66
2022/06/14 11:09:59;;;;;;;2.55;1.00;;;22.80;42.00;;;;;;5087548;28;20023;-67
2022/06/14 11:12:45;;;;;;;2.53;1.10;;;22.90;41.00;;;;;;5079849;28;20106;-66
2022/06/14 11:15:16;;;;;;;3.25;1.40;;;22.80;41.30;;;;;;5077292;28;20113;-66
2022/06/14 11:17:59;;;;;;;3.25;1.17;;;22.90;41.20;;;;;;5079533;28;20110;-66
2022/06/14 11:20:37;;;;;;;1.85;0.90;;;22.90;41.00;;;;;;5088437;28;20035;-67
2022/06/14 11:23:23;;;;;;;2.35;1.10;;;23.10;40.40;;;;;;5087996;28;20032;-66
2022/06/14 11:26:17;;;;;;;4.28;1.10;;;23.10;40.70;;;;;;5083828;28;20525;-67
2022/06/14 11:29:09;;;;;;;1.60;0.90;;;22.90;40.20;;;;;;5088130;28;20123;-67
2022/06/14 11:31:37;;;;;;;4.43;1.23;;;22.90;40.80;;;;;;5082908;28;20028;-67
2022/06/14 11:34:18;;;;;;;2.88;1.20;;;23.00;40.20;;;;;;5089390;28;21168;-67
2022/06/14 11:37:01;;;;;;;4.10;1.15;;;22.90;39.60;;;;;;5087643;28;20493;-67
2022/06/14 11:39:56;;;;;;;1.55;1.00;;;23.10;40.40;;;;;;5085831;28;20043;-67
2022/06/14 11:42:30;;;;;;;3.60;1.17;;;23.10;40.20;;;;;;5072427;28;20051;-67
2022/06/14 11:45:35;;;;;;;2.67;1.15;;;23.20;40.50;;;;;;5077465;28;20040;-67
2022/06/14 11:48:30;;;;;;;3.50;1.30;;;23.50;39.50;;;;;;5041933;28;20035;-67
2022/06/14 11:51:33;;;;;;;1.70;0.90;;;23.30;39.30;;;;;;5071079;28;20899;-67
2022/06/14 11:54:45;;;;;;;2.38;1.00;;;23.50;39.80;;;;;;5074329;28;20032;-66
2022/06/14 11:57:26;;;;;;;2.97;1.20;;;23.60;39.80;;;;;;5017482;28;20406;-67
2022/06/14 12:00:09;;;;;;;3.05;1.10;;;23.30;39.70;;;;;;5106196;28;20546;-67
2022/06/14 12:03:00;;;;;;;2.63;1.30;;;23.50;40.20;;;;;;5085207;28;20474;-67
2022/06/14 12:05:38;;;;;;;2.65;1.10;;;23.70;39.50;;;;;;5080136;28;20024;-66
2022/06/14 12:08:21;;;;;;;2.47;0.80;;;23.70;39.90;;;;;;5080687;28;20020;-67
2022/06/14 12:11:04;;;;;;;3.42;0.95;;;24.30;39.40;;;;;;5081336;28;20398;-67
2022/06/14 12:13:30;;;;;;;3.22;1.10;;;24.80;38.90;;;;;;5079253;28;20380;-66
2022/06/14 12:16:21;;;;;;;3.80;1.27;;;24.60;38.40;;;;;;5088592;28;20078;-67
2022/06/14 12:18:59;;;;;;;2.30;0.95;;;24.30;38.70;;;;;;5085360;28;20402;-67
2022/06/14 12:21:25;;;;;;;2.47;0.82;;;24.40;38.90;;;;;;5083753;28;20073;-67
2022/06/14 12:23:56;;;;;;;2.00;0.90;;;24.80;38.80;;;;;;5090828;28;20036;-67
2022/06/14 12:26:39;;;;;;;2.03;0.90;;;24.90;38.40;;;;;;5082095;28;20138;-67
2022/06/14 12:29:19;;;;;;;2.38;0.90;;;24.80;38.20;;;;;;5093218;28;20024;-66
2022/06/14 12:32:03;;;;;;;2.08;1.02;;;24.90;38.30;;;;;;5082837;28;20382;-66
2022/06/14 12:34:42;;;;;;;2.55;1.10;;;25.00;38.00;;;;;;5098502;28;20020;-66
2022/06/14 12:37:27;;;;;;;2.72;1.10;;;25.00;37.70;;;;;;5080165;28;20498;-67
2022/06/14 12:40:12;;;;;;;2.70;1.10;;;24.80;38.00;;;;;;5093057;28;20288;-67
2022/06/14 12:43:03;;;;;;;1.40;0.90;;;24.60;38.60;;;;;;5094790;28;20089;-67
2022/06/14 12:45:50;;;;;;;2.80;1.00;;;24.30;38.90;;;;;;5090577;28;20111;-67
2022/06/14 12:48:34;;;;;;;2.05;1.02;;;23.90;39.40;;;;;;5083874;28;20048;-67
2022/06/14 12:51:20;;;;;;;2.42;0.90;;;23.60;40.10;;;;;;5076633;28;20055;-66
2022/06/14 12:54:04;;;;;;;2.55;1.00;;;23.40;40.20;;;;;;5081778;28;20030;-66
2022/06/14 12:56:29;;;;;;;2.35;1.10;;;23.50;40.50;;;;;;5086954;28;20055;-67
2022/06/14 12:59:23;;;;;;;3.75;1.45;;;23.70;40.20;;;;;;5092738;28;20497;-67
2022/06/14 13:01:49;;;;;;;2.92;1.15;;;23.80;39.50;;;;;;5075335;28;20055;-66
2022/06/14 13:04:19;;;;;;;1.85;0.80;;;24.00;39.50;;;;;;5087492;28;20028;-66
2022/06/14 13:07:07;;;;;;;2.55;0.80;;;24.70;39.10;;;;;;5083340;28;20024;-66
2022/06/14 13:09:49;;;;;;;3.05;1.02;;;25.30;38.40;;;;;;5082497;28;20415;-67
2022/06/14 13:12:37;;;;;;;3.33;1.00;;;25.60;37.90;;;;;;5078341;28;20504;-68
2022/06/14 13:15:31;;;;;;;2.60;0.95;;;25.80;37.50;;;;;;5078879;28;20081;-67
2022/06/14 13:18:19;;;;;;;2.35;1.10;;;25.70;37.30;;;;;;5090722;28;20035;-67
2022/06/14 13:21:00;;;;;;;3.30;1.20;;;25.40;37.60;;;;;;5087816;28;20503;-68
2022/06/14 13:23:39;;;;;;;2.63;1.10;;;24.90;37.50;;;;;;5084415;28;20028;-67
2022/06/14 13:26:30;;;;;;;1.58;0.93;;;24.50;37.90;;;;;;5079789;28;20029;-67
2022/06/14 13:29:17;;;;;;;2.57;1.00;;;24.30;38.60;;;;;;5089313;28;20044;-67
2022/06/14 13:31:50;;;;;;;1.25;0.90;;;24.60;38.60;;;;;;5086474;28;20029;-67
2022/06/14 13:34:38;;;;;;;2.38;1.00;;;24.90;38.60;;;;;;5086077;28;20118;-67
2022/06/14 13:37:12;;;;;;;2.63;1.20;;;24.70;38.30;;;;;;5083594;28;20023;-66
2022/06/14 13:40:01;;;;;;;3.25;1.05;;;24.80;38.70;;;;;;5080454;28;20023;-66
2022/06/14 13:42:36;;;;;;;2.65;1.00;;;25.10;38.30;;;;;;5083979;28;20375;-67
2022/06/14 13:45:24;;;;;;;2.42;1.00;;;25.20;38.20;;;;;;5089778;28;20066;-67
2022/06/14 13:48:10;;;;;;;2.63;1.38;;;25.40;38.10;;;;;;5084872;28;20031;-67
2022/06/14 13:50:44;;;;;;;4.95;1.30;;;25.60;37.90;;;;;;5091800;28;20438;-67
2022/06/14 13:53:34;;;;;;;3.03;1.00;;;25.90;37.50;;;;;;5084546;28;20020;-67
2022/06/14 13:56:19;;;;;;;3.53;1.20;;;25.70;36.80;;;;;;5080695;28;20024;-67
2022/06/14 13:58:59;;;;;;;2.67;1.20;;;25.20;37.10;;;;;;5081791;28;20509;-67
2022/06/14 14:02:06;;;;;;;2.17;1.10;;;25.10;37.50;;;;;;5075323;28;20033;-67
2022/06/14 14:04:58;;;;;;;1.98;0.93;;;24.60;37.70;;;;;;5017470;28;20162;-67
2022/06/14 14:07:32;;;;;;;2.38;0.90;;;24.40;38.50;;;;;;5079657;28;20032;-67
2022/06/14 14:10:04;;;;;;;3.05;1.30;;;24.20;38.50;;;;;;5076994;28;20577;-67